sensor_id;sensor_type;location;lat;lon;timestamp;temperature;humidity
78438;SHT31;67736;51.978;5.656;2023-04-03T00:00:22;7.0;54.0
78438;SHT31;67736;51.978;5.656;2023-04-03T00:02:51;7.0;54.2
78438;SHT31;67736;51.978;5.656;2023-04-03T00:05:21;6.9;54.1
78438;SHT31;67736;51.978;5.656;2023-04-03T00:07:51;6.9;54.1
78438;SHT31;67736;51.978;5.656;2023-04-03T00:10:20;6.9;54.5
78438;SHT31;67736;51.978;5.656;2023-04-03T00:12:50;6.8;54.6
78438;SHT31;67736;51.978;5.656;2023-04-03T00:15:21;6.8;54.5
78438;SHT31;67736;51.978;5.656;2023-04-03T00:17:51;6.8;54.4
78438;SHT31;67736;51.978;5.656;2023-04-03T00:20:20;6.8;54.3
78438;SHT31;67736;51.978;5.656;2023-04-03T00:22:51;6.8;54.3
78438;SHT31;67736;51.978;5.656;2023-04-03T00:25:20;6.8;54.4
78438;SHT31;67736;51.978;5.656;2023-04-03T00:27:51;6.7;54.4
78438;SHT31;67736;51.978;5.656;2023-04-03T00:30:21;6.7;54.6
78438;SHT31;67736;51.978;5.656;2023-04-03T00:32:52;6.7;54.5
78438;SHT31;67736;51.978;5.656;2023-04-03T00:35:23;6.7;54.3
78438;SHT31;67736;51.978;5.656;2023-04-03T00:37:54;6.7;54.5
78438;SHT31;67736;51.978;5.656;2023-04-03T00:40:25;6.6;54.6
78438;SHT31;67736;51.978;5.656;2023-04-03T00:42:58;6.6;54.4
78438;SHT31;67736;51.978;5.656;2023-04-03T00:45:32;6.6;54.6
78438;SHT31;67736;51.978;5.656;2023-04-03T00:48:05;6.6;54.6
78438;SHT31;67736;51.978;5.656;2023-04-03T00:50:38;6.6;54.7
78438;SHT31;67736;51.978;5.656;2023-04-03T00:53:12;6.5;54.7
78438;SHT31;67736;51.978;5.656;2023-04-03T00:55:43;6.5;54.7
78438;SHT31;67736;51.978;5.656;2023-04-03T00:58:18;6.5;54.8
78438;SHT31;67736;51.978;5.656;2023-04-03T01:00:54;6.4;55.0
78438;SHT31;67736;51.978;5.656;2023-04-03T01:03:25;6.4;55.0
78438;SHT31;67736;51.978;5.656;2023-04-03T01:05:56;6.4;55.0
78438;SHT31;67736;51.978;5.656;2023-04-03T01:08:29;6.4;55.1
78438;SHT31;67736;51.978;5.656;2023-04-03T01:10:59;6.4;55.2
78438;SHT31;67736;51.978;5.656;2023-04-03T01:13:31;6.3;55.6
78438;SHT31;67736;51.978;5.656;2023-04-03T01:16:03;6.3;55.7
78438;SHT31;67736;51.978;5.656;2023-04-03T01:18:37;6.3;55.7
78438;SHT31;67736;51.978;5.656;2023-04-03T01:21:30;6.3;55.8
78438;SHT31;67736;51.978;5.656;2023-04-03T01:24:22;6.3;55.8
78438;SHT31;67736;51.978;5.656;2023-04-03T01:26:55;6.3;55.9
78438;SHT31;67736;51.978;5.656;2023-04-03T01:29:25;6.3;55.8
78438;SHT31;67736;51.978;5.656;2023-04-03T01:31:56;6.3;55.8
78438;SHT31;67736;51.978;5.656;2023-04-03T01:34:27;6.3;55.8
78438;SHT31;67736;51.978;5.656;2023-04-03T01:36:57;6.3;55.7
78438;SHT31;67736;51.978;5.656;2023-04-03T01:39:27;6.3;56.1
78438;SHT31;67736;51.978;5.656;2023-04-03T01:41:57;6.3;55.9
78438;SHT31;67736;51.978;5.656;2023-04-03T01:44:26;6.2;56.0
78438;SHT31;67736;51.978;5.656;2023-04-03T01:46:56;6.2;56.2
78438;SHT31;67736;51.978;5.656;2023-04-03T01:49:25;6.2;56.5
78438;SHT31;67736;51.978;5.656;2023-04-03T01:51:55;6.2;56.5
78438;SHT31;67736;51.978;5.656;2023-04-03T01:54:25;6.2;56.6
78438;SHT31;67736;51.978;5.656;2023-04-03T01:56:54;6.1;56.6
78438;SHT31;67736;51.978;5.656;2023-04-03T01:59:24;6.1;56.7
78438;SHT31;67736;51.978;5.656;2023-04-03T02:01:53;6.1;57.2
78438;SHT31;67736;51.978;5.656;2023-04-03T02:04:23;6.1;57.0
78438;SHT31;67736;51.978;5.656;2023-04-03T02:06:52;6.1;57.2
78438;SHT31;67736;51.978;5.656;2023-04-03T02:09:22;6.0;57.2
78438;SHT31;67736;51.978;5.656;2023-04-03T02:11:53;6.0;57.5
78438;SHT31;67736;51.978;5.656;2023-04-03T02:14:23;6.0;57.7
78438;SHT31;67736;51.978;5.656;2023-04-03T02:16:54;6.0;57.7
78438;SHT31;67736;51.978;5.656;2023-04-03T02:19:24;6.0;57.9
78438;SHT31;67736;51.978;5.656;2023-04-03T02:21:53;5.9;58.2
78438;SHT31;67736;51.978;5.656;2023-04-03T02:24:23;5.9;58.2
78438;SHT31;67736;51.978;5.656;2023-04-03T02:26:53;5.9;58.3
78438;SHT31;67736;51.978;5.656;2023-04-03T02:29:23;5.9;58.5
78438;SHT31;67736;51.978;5.656;2023-04-03T02:31:52;5.9;58.6
78438;SHT31;67736;51.978;5.656;2023-04-03T02:34:22;5.9;58.6
78438;SHT31;67736;51.978;5.656;2023-04-03T02:36:54;5.8;58.7
78438;SHT31;67736;51.978;5.656;2023-04-03T02:39:23;5.8;58.9
78438;SHT31;67736;51.978;5.656;2023-04-03T02:41:53;5.8;59.0
78438;SHT31;67736;51.978;5.656;2023-04-03T02:44:24;5.8;58.8
78438;SHT31;67736;51.978;5.656;2023-04-03T02:46:56;5.8;59.1
78438;SHT31;67736;51.978;5.656;2023-04-03T02:49:25;5.8;59.2
78438;SHT31;67736;51.978;5.656;2023-04-03T02:51:55;5.8;59.3
78438;SHT31;67736;51.978;5.656;2023-04-03T02:54:24;5.8;59.2
78438;SHT31;67736;51.978;5.656;2023-04-03T02:56:56;5.8;59.4
78438;SHT31;67736;51.978;5.656;2023-04-03T02:59:25;5.7;59.5
78438;SHT31;67736;51.978;5.656;2023-04-03T03:01:55;5.7;59.5
78438;SHT31;67736;51.978;5.656;2023-04-03T03:04:25;5.7;59.7
78438;SHT31;67736;51.978;5.656;2023-04-03T03:06:54;5.7;59.7
78438;SHT31;67736;51.978;5.656;2023-04-03T03:09:23;5.7;59.6
78438;SHT31;67736;51.978;5.656;2023-04-03T03:11:53;5.7;59.7
78438;SHT31;67736;51.978;5.656;2023-04-03T03:14:23;5.7;59.6
78438;SHT31;67736;51.978;5.656;2023-04-03T03:16:53;5.7;59.5
78438;SHT31;67736;51.978;5.656;2023-04-03T03:19:22;5.7;59.6
78438;SHT31;67736;51.978;5.656;2023-04-03T03:21:52;5.7;59.7
78438;SHT31;67736;51.978;5.656;2023-04-03T03:24:22;5.7;59.9
78438;SHT31;67736;51.978;5.656;2023-04-03T03:26:52;5.6;59.9
78438;SHT31;67736;51.978;5.656;2023-04-03T03:29:21;5.6;60.0
78438;SHT31;67736;51.978;5.656;2023-04-03T03:31:52;5.6;60.4
78438;SHT31;67736;51.978;5.656;2023-04-03T03:34:21;5.6;60.4
78438;SHT31;67736;51.978;5.656;2023-04-03T03:36:50;5.6;60.5
78438;SHT31;67736;51.978;5.656;2023-04-03T03:39:20;5.6;60.5
78438;SHT31;67736;51.978;5.656;2023-04-03T03:41:50;5.5;60.7
78438;SHT31;67736;51.978;5.656;2023-04-03T03:44:21;5.5;60.7
78438;SHT31;67736;51.978;5.656;2023-04-03T03:46:50;5.5;60.8
78438;SHT31;67736;51.978;5.656;2023-04-03T03:49:20;5.5;60.9
78438;SHT31;67736;51.978;5.656;2023-04-03T03:51:49;5.5;60.8
78438;SHT31;67736;51.978;5.656;2023-04-03T03:54:21;5.5;61.0
78438;SHT31;67736;51.978;5.656;2023-04-03T03:56:50;5.5;60.9
78438;SHT31;67736;51.978;5.656;2023-04-03T03:59:20;5.5;61.0
78438;SHT31;67736;51.978;5.656;2023-04-03T04:01:49;5.6;60.8
78438;SHT31;67736;51.978;5.656;2023-04-03T04:04:19;5.6;60.8
78438;SHT31;67736;51.978;5.656;2023-04-03T04:06:48;5.6;60.6
78438;SHT31;67736;51.978;5.656;2023-04-03T04:09:17;5.6;60.6
78438;SHT31;67736;51.978;5.656;2023-04-03T04:11:47;5.5;60.7
78438;SHT31;67736;51.978;5.656;2023-04-03T04:14:18;5.5;60.7
78438;SHT31;67736;51.978;5.656;2023-04-03T04:16:49;5.5;60.7
78438;SHT31;67736;51.978;5.656;2023-04-03T04:19:22;5.5;60.8
78438;SHT31;67736;51.978;5.656;2023-04-03T04:21:53;5.5;60.8
78438;SHT31;67736;51.978;5.656;2023-04-03T04:24:23;5.5;60.9
78438;SHT31;67736;51.978;5.656;2023-04-03T04:26:52;5.4;60.9
78438;SHT31;67736;51.978;5.656;2023-04-03T04:29:22;5.4;61.0
78438;SHT31;67736;51.978;5.656;2023-04-03T04:31:52;5.4;61.1
78438;SHT31;67736;51.978;5.656;2023-04-03T04:34:21;5.4;61.1
78438;SHT31;67736;51.978;5.656;2023-04-03T04:36:51;5.3;61.3
78438;SHT31;67736;51.978;5.656;2023-04-03T04:39:21;5.3;61.4
78438;SHT31;67736;51.978;5.656;2023-04-03T04:41:50;5.3;61.5
78438;SHT31;67736;51.978;5.656;2023-04-03T04:44:20;5.3;61.7
78438;SHT31;67736;51.978;5.656;2023-04-03T04:46:49;5.2;61.6
78438;SHT31;67736;51.978;5.656;2023-04-03T04:49:19;5.2;61.7
78438;SHT31;67736;51.978;5.656;2023-04-03T04:51:48;5.2;61.8
78438;SHT31;67736;51.978;5.656;2023-04-03T04:54:18;5.2;62.0
78438;SHT31;67736;51.978;5.656;2023-04-03T04:56:48;5.2;61.8
78438;SHT31;67736;51.978;5.656;2023-04-03T04:59:17;5.2;61.8
78438;SHT31;67736;51.978;5.656;2023-04-03T05:01:47;5.2;61.8
78438;SHT31;67736;51.978;5.656;2023-04-03T05:04:17;5.1;62.0
78438;SHT31;67736;51.978;5.656;2023-04-03T05:06:47;5.1;61.9
78438;SHT31;67736;51.978;5.656;2023-04-03T05:09:16;5.1;62.0
78438;SHT31;67736;51.978;5.656;2023-04-03T05:11:47;5.1;62.0
78438;SHT31;67736;51.978;5.656;2023-04-03T05:14:17;5.0;62.2
78438;SHT31;67736;51.978;5.656;2023-04-03T05:16:47;5.0;62.1
78438;SHT31;67736;51.978;5.656;2023-04-03T05:19:20;5.0;62.3
78438;SHT31;67736;51.978;5.656;2023-04-03T05:21:52;5.0;62.3
78438;SHT31;67736;51.978;5.656;2023-04-03T05:24:22;4.9;62.3
78438;SHT31;67736;51.978;5.656;2023-04-03T05:26:53;4.9;62.6
78438;SHT31;67736;51.978;5.656;2023-04-03T05:29:22;4.9;62.5
78438;SHT31;67736;51.978;5.656;2023-04-03T05:31:54;4.9;62.3
78438;SHT31;67736;51.978;5.656;2023-04-03T05:34:23;4.9;62.5
78438;SHT31;67736;51.978;5.656;2023-04-03T05:36:53;4.8;62.5
78438;SHT31;67736;51.978;5.656;2023-04-03T05:39:22;4.8;62.5
78438;SHT31;67736;51.978;5.656;2023-04-03T05:41:52;4.8;62.6
78438;SHT31;67736;51.978;5.656;2023-04-03T05:44:22;4.8;62.5
78438;SHT31;67736;51.978;5.656;2023-04-03T05:46:51;4.7;62.8
78438;SHT31;67736;51.978;5.656;2023-04-03T05:49:21;4.7;62.9
78438;SHT31;67736;51.978;5.656;2023-04-03T05:51:51;4.7;62.9
78438;SHT31;67736;51.978;5.656;2023-04-03T05:54:24;4.6;63.0
78438;SHT31;67736;51.978;5.656;2023-04-03T05:56:53;4.6;63.3
78438;SHT31;67736;51.978;5.656;2023-04-03T05:59:23;4.6;63.3
78438;SHT31;67736;51.978;5.656;2023-04-03T06:01:53;4.6;63.3
78438;SHT31;67736;51.978;5.656;2023-04-03T06:04:23;4.6;63.6
78438;SHT31;67736;51.978;5.656;2023-04-03T06:06:54;4.6;63.4
78438;SHT31;67736;51.978;5.656;2023-04-03T06:09:26;4.6;63.4
78438;SHT31;67736;51.978;5.656;2023-04-03T06:11:58;4.6;63.1
78438;SHT31;67736;51.978;5.656;2023-04-03T06:14:28;4.6;63.0
78438;SHT31;67736;51.978;5.656;2023-04-03T06:16:57;4.6;62.8
78438;SHT31;67736;51.978;5.656;2023-04-03T06:19:29;4.6;63.0
78438;SHT31;67736;51.978;5.656;2023-04-03T06:21:59;4.6;62.7
78438;SHT31;67736;51.978;5.656;2023-04-03T06:24:29;4.7;62.8
78438;SHT31;67736;51.978;5.656;2023-04-03T06:26:59;4.7;63.0
78438;SHT31;67736;51.978;5.656;2023-04-03T06:29:30;4.7;62.3
78438;SHT31;67736;51.978;5.656;2023-04-03T06:32:00;4.7;62.2
78438;SHT31;67736;51.978;5.656;2023-04-03T06:34:29;4.7;62.6
78438;SHT31;67736;51.978;5.656;2023-04-03T06:37:00;4.7;62.5
78438;SHT31;67736;51.978;5.656;2023-04-03T06:39:30;4.8;62.2
78438;SHT31;67736;51.978;5.656;2023-04-03T06:42:02;4.8;62.1
78438;SHT31;67736;51.978;5.656;2023-04-03T06:44:33;4.8;62.3
78438;SHT31;67736;51.978;5.656;2023-04-03T06:47:03;4.8;61.8
78438;SHT31;67736;51.978;5.656;2023-04-03T06:49:33;4.9;62.0
78438;SHT31;67736;51.978;5.656;2023-04-03T06:52:06;4.9;61.7
78438;SHT31;67736;51.978;5.656;2023-04-03T06:54:36;5.0;61.7
78438;SHT31;67736;51.978;5.656;2023-04-03T06:57:06;5.0;60.9
78438;SHT31;67736;51.978;5.656;2023-04-03T06:59:35;5.1;60.6
78438;SHT31;67736;51.978;5.656;2023-04-03T07:02:05;5.2;60.5
78438;SHT31;67736;51.978;5.656;2023-04-03T07:04:34;5.2;60.4
78438;SHT31;67736;51.978;5.656;2023-04-03T07:07:04;5.3;60.3
78438;SHT31;67736;51.978;5.656;2023-04-03T07:09:34;5.3;60.1
78438;SHT31;67736;51.978;5.656;2023-04-03T07:12:06;5.4;59.9
78438;SHT31;67736;51.978;5.656;2023-04-03T07:14:35;5.5;59.6
78438;SHT31;67736;51.978;5.656;2023-04-03T07:17:05;5.5;59.0
78438;SHT31;67736;51.978;5.656;2023-04-03T07:19:34;5.6;58.7
78438;SHT31;67736;51.978;5.656;2023-04-03T07:22:04;5.7;58.0
78438;SHT31;67736;51.978;5.656;2023-04-03T07:24:35;5.8;58.5
78438;SHT31;67736;51.978;5.656;2023-04-03T07:27:05;5.9;57.5
78438;SHT31;67736;51.978;5.656;2023-04-03T07:29:36;6.0;57.0
78438;SHT31;67736;51.978;5.656;2023-04-03T07:32:06;6.1;56.6
78438;SHT31;67736;51.978;5.656;2023-04-03T07:34:36;6.2;55.7
78438;SHT31;67736;51.978;5.656;2023-04-03T07:37:07;6.3;55.8
78438;SHT31;67736;51.978;5.656;2023-04-03T07:39:36;6.5;55.8
78438;SHT31;67736;51.978;5.656;2023-04-03T07:42:06;6.7;54.6
78438;SHT31;67736;51.978;5.656;2023-04-03T07:44:35;6.9;52.9
78438;SHT31;67736;51.978;5.656;2023-04-03T07:47:05;7.2;52.3
78438;SHT31;67736;51.978;5.656;2023-04-03T07:49:35;7.4;51.4
78438;SHT31;67736;51.978;5.656;2023-04-03T07:52:07;7.6;50.6
78438;SHT31;67736;51.978;5.656;2023-04-03T07:54:38;7.8;49.1
78438;SHT31;67736;51.978;5.656;2023-04-03T07:57:08;8.0;49.0
78438;SHT31;67736;51.978;5.656;2023-04-03T07:59:37;8.3;47.8
78438;SHT31;67736;51.978;5.656;2023-04-03T08:02:10;8.5;46.4
78438;SHT31;67736;51.978;5.656;2023-04-03T08:04:39;8.8;45.2
78438;SHT31;67736;51.978;5.656;2023-04-03T08:07:12;9.0;43.7
78438;SHT31;67736;51.978;5.656;2023-04-03T08:09:41;9.2;43.3
78438;SHT31;67736;51.978;5.656;2023-04-03T08:12:12;9.4;42.3
78438;SHT31;67736;51.978;5.656;2023-04-03T08:14:42;9.6;41.2
78438;SHT31;67736;51.978;5.656;2023-04-03T08:17:11;9.8;40.3
78438;SHT31;67736;51.978;5.656;2023-04-03T08:19:41;10.0;39.4
78438;SHT31;67736;51.978;5.656;2023-04-03T08:22:11;10.2;37.8
78438;SHT31;67736;51.978;5.656;2023-04-03T08:24:40;10.4;37.7
78438;SHT31;67736;51.978;5.656;2023-04-03T08:27:10;10.6;38.9
78438;SHT31;67736;51.978;5.656;2023-04-03T08:29:41;10.8;36.7
78438;SHT31;67736;51.978;5.656;2023-04-03T08:32:12;11.0;36.4
78438;SHT31;67736;51.978;5.656;2023-04-03T08:34:41;11.3;35.3
78438;SHT31;67736;51.978;5.656;2023-04-03T08:37:11;11.5;32.9
78438;SHT31;67736;51.978;5.656;2023-04-03T08:39:40;11.7;32.2
78438;SHT31;67736;51.978;5.656;2023-04-03T08:42:20;11.8;32.2
78438;SHT31;67736;51.978;5.656;2023-04-03T08:44:57;12.0;30.9
78438;SHT31;67736;51.978;5.656;2023-04-03T08:47:37;12.2;30.2
78438;SHT31;67736;51.978;5.656;2023-04-03T08:50:15;12.3;28.4
78438;SHT31;67736;51.978;5.656;2023-04-03T08:52:49;12.5;28.4
78438;SHT31;67736;51.978;5.656;2023-04-03T08:55:23;12.6;28.6
78438;SHT31;67736;51.978;5.656;2023-04-03T08:58:00;12.7;28.1
78438;SHT31;67736;51.978;5.656;2023-04-03T09:00:41;12.9;24.9
78438;SHT31;67736;51.978;5.656;2023-04-03T09:03:17;12.9;24.4
78438;SHT31;67736;51.978;5.656;2023-04-03T09:05:53;13.0;23.3
78438;SHT31;67736;51.978;5.656;2023-04-03T09:08:28;13.0;23.7
78438;SHT31;67736;51.978;5.656;2023-04-03T09:11:22;13.0;22.8
78438;SHT31;67736;51.978;5.656;2023-04-03T09:13:59;13.0;22.0
78438;SHT31;67736;51.978;5.656;2023-04-03T09:16:38;13.0;22.9
78438;SHT31;67736;51.978;5.656;2023-04-03T09:19:15;13.1;23.5
78438;SHT31;67736;51.978;5.656;2023-04-03T09:21:47;13.2;21.3
78438;SHT31;67736;51.978;5.656;2023-04-03T09:24:18;13.2;20.6
78438;SHT31;67736;51.978;5.656;2023-04-03T09:26:53;13.2;20.6
78438;SHT31;67736;51.978;5.656;2023-04-03T09:29:26;13.3;19.9
78438;SHT31;67736;51.978;5.656;2023-04-03T09:32:00;13.3;19.1
78438;SHT31;67736;51.978;5.656;2023-04-03T09:34:32;13.3;19.5
78438;SHT31;67736;51.978;5.656;2023-04-03T09:37:04;13.3;19.3
78438;SHT31;67736;51.978;5.656;2023-04-03T09:39:50;13.3;19.1
78438;SHT31;67736;51.978;5.656;2023-04-03T09:42:22;13.2;19.5
78438;SHT31;67736;51.978;5.656;2023-04-03T09:44:56;13.2;21.0
78438;SHT31;67736;51.978;5.656;2023-04-03T09:47:27;13.2;20.7
78438;SHT31;67736;51.978;5.656;2023-04-03T09:50:19;13.3;20.6
78438;SHT31;67736;51.978;5.656;2023-04-03T09:52:51;13.3;20.8
78438;SHT31;67736;51.978;5.656;2023-04-03T09:55:23;13.4;20.7
78438;SHT31;67736;51.978;5.656;2023-04-03T09:57:55;13.4;20.1
78438;SHT31;67736;51.978;5.656;2023-04-03T10:00:30;13.4;19.6
78438;SHT31;67736;51.978;5.656;2023-04-03T10:03:00;13.3;19.6
78438;SHT31;67736;51.978;5.656;2023-04-03T10:05:34;13.2;20.6
78438;SHT31;67736;51.978;5.656;2023-04-03T10:08:21;13.1;20.9
78438;SHT31;67736;51.978;5.656;2023-04-03T10:11:11;13.1;19.9
78438;SHT31;67736;51.978;5.656;2023-04-03T10:13:59;13.0;20.3
78438;SHT31;67736;51.978;5.656;2023-04-03T10:16:34;13.0;21.6
78438;SHT31;67736;51.978;5.656;2023-04-03T10:19:16;13.0;22.9
78438;SHT31;67736;51.978;5.656;2023-04-03T10:21:53;13.0;21.9
78438;SHT31;67736;51.978;5.656;2023-04-03T10:24:29;13.0;21.2
78438;SHT31;67736;51.978;5.656;2023-04-03T10:27:08;13.0;21.1
78438;SHT31;67736;51.978;5.656;2023-04-03T10:29:45;13.0;21.8
78438;SHT31;67736;51.978;5.656;2023-04-03T10:32:47;13.0;22.1
78438;SHT31;67736;51.978;5.656;2023-04-03T10:35:32;13.0;22.2
78438;SHT31;67736;51.978;5.656;2023-04-03T10:38:14;12.9;21.8
78438;SHT31;67736;51.978;5.656;2023-04-03T10:40:55;12.9;22.8
78438;SHT31;67736;51.978;5.656;2023-04-03T10:43:33;12.9;22.4
78438;SHT31;67736;51.978;5.656;2023-04-03T10:46:09;12.8;22.6
78438;SHT31;67736;51.978;5.656;2023-04-03T10:49:01;12.7;22.9
78438;SHT31;67736;51.978;5.656;2023-04-03T10:51:44;12.4;24.1
78438;SHT31;67736;51.978;5.656;2023-04-03T10:54:20;12.3;24.9
78438;SHT31;67736;51.978;5.656;2023-04-03T10:56:56;12.2;24.5
78438;SHT31;67736;51.978;5.656;2023-04-03T10:59:32;12.1;24.8
78438;SHT31;67736;51.978;5.656;2023-04-03T11:02:07;11.9;25.3
78438;SHT31;67736;51.978;5.656;2023-04-03T11:04:40;11.9;25.4
78438;SHT31;67736;51.978;5.656;2023-04-03T11:07:16;11.8;25.6
78438;SHT31;67736;51.978;5.656;2023-04-03T11:09:54;11.7;26.1
78438;SHT31;67736;51.978;5.656;2023-04-03T11:12:32;11.6;25.9
78438;SHT31;67736;51.978;5.656;2023-04-03T11:15:04;11.5;26.8
78438;SHT31;67736;51.978;5.656;2023-04-03T11:17:39;11.4;26.9
78438;SHT31;67736;51.978;5.656;2023-04-03T11:20:18;11.4;27.2
78438;SHT31;67736;51.978;5.656;2023-04-03T11:23:00;11.4;27.3
78438;SHT31;67736;51.978;5.656;2023-04-03T11:25:34;11.4;27.9
78438;SHT31;67736;51.978;5.656;2023-04-03T11:28:09;11.4;26.7
78438;SHT31;67736;51.978;5.656;2023-04-03T11:30:47;11.4;27.2
78438;SHT31;67736;51.978;5.656;2023-04-03T11:33:37;11.4;28.1
78438;SHT31;67736;51.978;5.656;2023-04-03T11:36:21;11.4;26.4
78438;SHT31;67736;51.978;5.656;2023-04-03T11:38:56;11.4;26.6
78438;SHT31;67736;51.978;5.656;2023-04-03T11:41:30;11.4;27.8
78438;SHT31;67736;51.978;5.656;2023-04-03T11:44:02;11.4;26.7
78438;SHT31;67736;51.978;5.656;2023-04-03T11:46:52;11.4;27.6
78438;SHT31;67736;51.978;5.656;2023-04-03T11:50:45;11.4;27.6
78438;SHT31;67736;51.978;5.656;2023-04-03T11:53:30;11.4;27.3
78438;SHT31;67736;51.978;5.656;2023-04-03T11:56:43;11.5;26.1
78438;SHT31;67736;51.978;5.656;2023-04-03T11:59:25;11.5;26.3
78438;SHT31;67736;51.978;5.656;2023-04-03T12:01:56;11.5;26.0
78438;SHT31;67736;51.978;5.656;2023-04-03T12:04:27;11.4;26.6
78438;SHT31;67736;51.978;5.656;2023-04-03T12:07:17;11.4;26.8
78438;SHT31;67736;51.978;5.656;2023-04-03T12:09:58;11.4;26.5
78438;SHT31;67736;51.978;5.656;2023-04-03T12:12:32;11.4;26.4
78438;SHT31;67736;51.978;5.656;2023-04-03T12:16:56;11.3;27.1
78438;SHT31;67736;51.978;5.656;2023-04-03T12:19:38;11.3;27.8
78438;SHT31;67736;51.978;5.656;2023-04-03T12:22:15;11.3;26.8
78438;SHT31;67736;51.978;5.656;2023-04-03T12:24:49;11.3;26.4
78438;SHT31;67736;51.978;5.656;2023-04-03T12:27:23;11.3;27.7
78438;SHT31;67736;51.978;5.656;2023-04-03T12:29:58;11.3;28.2
78438;SHT31;67736;51.978;5.656;2023-04-03T12:32:45;11.3;27.3
78438;SHT31;67736;51.978;5.656;2023-04-03T12:35:21;11.3;28.7
78438;SHT31;67736;51.978;5.656;2023-04-03T12:38:33;11.4;29.3
78438;SHT31;67736;51.978;5.656;2023-04-03T12:41:21;11.4;28.5
78438;SHT31;67736;51.978;5.656;2023-04-03T12:44:40;11.5;28.4
78438;SHT31;67736;51.978;5.656;2023-04-03T12:47:24;11.6;27.9
78438;SHT31;67736;51.978;5.656;2023-04-03T12:49:59;11.6;28.2
78438;SHT31;67736;51.978;5.656;2023-04-03T12:52:37;11.7;27.9
78438;SHT31;67736;51.978;5.656;2023-04-03T12:55:17;11.7;28.4
78438;SHT31;67736;51.978;5.656;2023-04-03T12:57:47;11.7;27.9
78438;SHT31;67736;51.978;5.656;2023-04-03T13:00:28;11.6;28.2
78438;SHT31;67736;51.978;5.656;2023-04-03T13:03:00;11.6;28.0
78438;SHT31;67736;51.978;5.656;2023-04-03T13:05:33;11.6;28.6
78438;SHT31;67736;51.978;5.656;2023-04-03T13:08:09;11.6;28.9
78438;SHT31;67736;51.978;5.656;2023-04-03T13:10:49;11.6;28.2
78438;SHT31;67736;51.978;5.656;2023-04-03T13:13:20;11.6;28.3
78438;SHT31;67736;51.978;5.656;2023-04-03T13:15:50;11.6;27.9
78438;SHT31;67736;51.978;5.656;2023-04-03T13:18:25;11.6;27.6
78438;SHT31;67736;51.978;5.656;2023-04-03T13:20:58;11.5;27.4
78438;SHT31;67736;51.978;5.656;2023-04-03T13:23:32;11.6;27.7
78438;SHT31;67736;51.978;5.656;2023-04-03T13:26:05;11.6;28.1
78438;SHT31;67736;51.978;5.656;2023-04-03T13:28:36;11.6;28.3
78438;SHT31;67736;51.978;5.656;2023-04-03T13:31:15;11.6;29.0
78438;SHT31;67736;51.978;5.656;2023-04-03T13:33:56;11.6;28.4
78438;SHT31;67736;51.978;5.656;2023-04-03T13:36:29;11.6;27.9
78438;SHT31;67736;51.978;5.656;2023-04-03T13:39:02;11.6;28.1
78438;SHT31;67736;51.978;5.656;2023-04-03T13:41:34;11.6;29.2
78438;SHT31;67736;51.978;5.656;2023-04-03T13:44:32;11.6;28.9
78438;SHT31;67736;51.978;5.656;2023-04-03T13:47:20;11.6;29.6
78438;SHT31;67736;51.978;5.656;2023-04-03T13:50:03;11.6;29.7
78438;SHT31;67736;51.978;5.656;2023-04-03T13:52:41;11.7;28.5
78438;SHT31;67736;51.978;5.656;2023-04-03T13:55:25;11.7;28.0
78438;SHT31;67736;51.978;5.656;2023-04-03T13:57:59;11.7;28.2
78438;SHT31;67736;51.978;5.656;2023-04-03T14:00:33;11.7;28.8
78438;SHT31;67736;51.978;5.656;2023-04-03T14:03:16;11.7;28.3
78438;SHT31;67736;51.978;5.656;2023-04-03T14:05:48;11.7;27.9
78438;SHT31;67736;51.978;5.656;2023-04-03T14:08:19;11.6;28.0
78438;SHT31;67736;51.978;5.656;2023-04-03T14:10:49;11.6;28.8
78438;SHT31;67736;51.978;5.656;2023-04-03T14:13:20;11.5;28.4
78438;SHT31;67736;51.978;5.656;2023-04-03T14:15:50;11.5;29.1
78438;SHT31;67736;51.978;5.656;2023-04-03T14:18:20;11.5;29.2
78438;SHT31;67736;51.978;5.656;2023-04-03T14:20:52;11.5;29.4
78438;SHT31;67736;51.978;5.656;2023-04-03T14:23:22;11.5;29.5
78438;SHT31;67736;51.978;5.656;2023-04-03T14:25:51;11.5;28.6
78438;SHT31;67736;51.978;5.656;2023-04-03T14:28:22;11.6;29.5
78438;SHT31;67736;51.978;5.656;2023-04-03T14:30:53;11.6;29.9
78438;SHT31;67736;51.978;5.656;2023-04-03T14:33:22;11.6;29.7
78438;SHT31;67736;51.978;5.656;2023-04-03T14:35:56;11.6;30.4
78438;SHT31;67736;51.978;5.656;2023-04-03T14:38:28;11.6;30.8
78438;SHT31;67736;51.978;5.656;2023-04-03T14:40:58;11.6;30.3
78438;SHT31;67736;51.978;5.656;2023-04-03T14:43:28;11.6;30.0
78438;SHT31;67736;51.978;5.656;2023-04-03T14:45:58;11.7;30.4
78438;SHT31;67736;51.978;5.656;2023-04-03T14:48:29;11.7;30.7
78438;SHT31;67736;51.978;5.656;2023-04-03T14:50:59;11.7;31.2
78438;SHT31;67736;51.978;5.656;2023-04-03T14:53:29;11.7;30.5
78438;SHT31;67736;51.978;5.656;2023-04-03T14:55:59;11.7;30.6
78438;SHT31;67736;51.978;5.656;2023-04-03T14:58:29;11.7;30.0
78438;SHT31;67736;51.978;5.656;2023-04-03T15:00:59;11.7;30.1
78438;SHT31;67736;51.978;5.656;2023-04-03T15:03:29;11.7;30.1
78438;SHT31;67736;51.978;5.656;2023-04-03T15:06:01;11.6;30.3
78438;SHT31;67736;51.978;5.656;2023-04-03T15:08:31;11.6;30.8
78438;SHT31;67736;51.978;5.656;2023-04-03T15:11:00;11.6;30.9
78438;SHT31;67736;51.978;5.656;2023-04-03T15:13:30;11.6;30.9
78438;SHT31;67736;51.978;5.656;2023-04-03T15:16:01;11.6;31.2
78438;SHT31;67736;51.978;5.656;2023-04-03T15:18:37;11.5;31.6
78438;SHT31;67736;51.978;5.656;2023-04-03T15:21:07;11.5;31.8
78438;SHT31;67736;51.978;5.656;2023-04-03T15:23:36;11.5;32.0
78438;SHT31;67736;51.978;5.656;2023-04-03T15:26:06;11.5;31.6
78438;SHT31;67736;51.978;5.656;2023-04-03T15:28:38;11.5;32.1
78438;SHT31;67736;51.978;5.656;2023-04-03T15:31:09;11.5;32.6
78438;SHT31;67736;51.978;5.656;2023-04-03T15:33:39;11.5;32.8
78438;SHT31;67736;51.978;5.656;2023-04-03T15:36:09;11.5;32.7
78438;SHT31;67736;51.978;5.656;2023-04-03T15:38:38;11.5;32.4
78438;SHT31;67736;51.978;5.656;2023-04-03T15:41:08;11.5;32.1
78438;SHT31;67736;51.978;5.656;2023-04-03T15:43:37;11.5;32.2
78438;SHT31;67736;51.978;5.656;2023-04-03T15:46:07;11.5;32.9
78438;SHT31;67736;51.978;5.656;2023-04-03T15:48:39;11.5;33.1
78438;SHT31;67736;51.978;5.656;2023-04-03T15:51:09;11.5;32.8
78438;SHT31;67736;51.978;5.656;2023-04-03T15:53:38;11.5;31.6
78438;SHT31;67736;51.978;5.656;2023-04-03T15:56:08;11.5;31.7
78438;SHT31;67736;51.978;5.656;2023-04-03T15:58:39;11.6;32.3
78438;SHT31;67736;51.978;5.656;2023-04-03T16:01:09;11.6;32.1
78438;SHT31;67736;51.978;5.656;2023-04-03T16:03:40;11.6;32.5
78438;SHT31;67736;51.978;5.656;2023-04-03T16:06:12;11.6;32.2
78438;SHT31;67736;51.978;5.656;2023-04-03T16:08:42;11.5;31.8
78438;SHT31;67736;51.978;5.656;2023-04-03T16:11:14;11.5;32.2
78438;SHT31;67736;51.978;5.656;2023-04-03T16:13:43;11.5;32.2
78438;SHT31;67736;51.978;5.656;2023-04-03T16:16:13;11.4;32.6
78438;SHT31;67736;51.978;5.656;2023-04-03T16:18:43;11.4;33.0
78438;SHT31;67736;51.978;5.656;2023-04-03T16:21:15;11.3;32.8
78438;SHT31;67736;51.978;5.656;2023-04-03T16:23:45;11.3;33.2
78438;SHT31;67736;51.978;5.656;2023-04-03T16:26:16;11.3;33.6
78438;SHT31;67736;51.978;5.656;2023-04-03T16:28:49;11.3;33.1
78438;SHT31;67736;51.978;5.656;2023-04-03T16:31:19;11.3;33.2
78438;SHT31;67736;51.978;5.656;2023-04-03T16:33:49;11.3;33.5
78438;SHT31;67736;51.978;5.656;2023-04-03T16:36:19;11.3;33.2
78438;SHT31;67736;51.978;5.656;2023-04-03T16:38:48;11.3;33.1
78438;SHT31;67736;51.978;5.656;2023-04-03T16:41:18;11.3;33.0
78438;SHT31;67736;51.978;5.656;2023-04-03T16:43:47;11.3;33.0
78438;SHT31;67736;51.978;5.656;2023-04-03T16:46:17;11.3;33.4
78438;SHT31;67736;51.978;5.656;2023-04-03T16:48:47;11.3;33.5